• Join FlightAware (Why Join?)
  • Login
  • US Flag 
05:00PM EDT


 

Airport Tracker/Info


-or-


 

Live Flight TrackerFlight Track Log ✈ RAX500 ✈ 12-Jun-2013 ✈ KTAZ - KPTK

Flight Track Log - Related Links

Times and Time Zones

All times are in EDT time to prevent confusion due to time zone crossing. See the RAX500 flight status page for this flight to view local times or setup timezone preferences in your user account.

Time Position Orientation Groundspeed Altitude Reporting Facility
EDT Latitude Longitude Course Direction KTS MPH feet Rate Location/Type
01:18PM 39.5739 -89.0850 70° East 286 329 9,200  Level Chicago Center
01:19PM 39.6150 -88.9653 66° East 339 390 9,400 360 Climbing Chicago Center
01:20PM 39.6678 -88.8308 63° Northeast 346 398 10,000 1,320 Climbing Kansas City Center
01:21PM 39.7153 -88.7125 62° Northeast 365 420 12,200 2,220 Climbing Kansas City Center
01:22PM 39.7608 -88.5914 64° Northeast 374 430 14,700 2,280 Climbing Kansas City Center
01:23PM 39.8058 -88.4706 64° Northeast 374 430 17,000 2,340 Climbing Kansas City Center
01:24PM 39.9044 -88.3014 70° East  Level FlightAware Approximate
01:25PM 39.8514 -88.3461 64° Northeast 378 435 19,600  Level Kansas City Center
01:26PM 39.9061 -88.2006 64° Northeast 376 433 22,600 1,680 Climbing Kansas City Center
01:27PM 39.9625 -88.0486 64° Northeast 387 445 23,400 1,020 Climbing Chicago Center
01:28PM 40.0139 -87.9133 64° Northeast 413 475 24,900 1,440 Climbing Chicago Center
01:29PM 40.0672 -87.7647 65° Northeast 413 475 26,400 1,380 Climbing Chicago Center
01:30PM 40.1147 -87.6275 66° East 418 481 27,800 1,440 Climbing Chicago Center
01:31PM 40.1669 -87.4942 63° Northeast 415 478 29,400 1,500 Climbing Chicago Center
01:32PM 40.2139 -87.3644 65° Northeast 402 463 31,000 1,440 Climbing Chicago Center
01:33PM 40.2614 -87.2353 64° Northeast 397 457 32,500 1,320 Climbing Chicago Center
01:34PM 40.3206 -87.0728 64° Northeast 415 478 33,800 1,020 Climbing Chicago Center
01:35PM 40.3725 -86.9336 64° Northeast 424 488 34,700 540 Climbing Chicago Center
01:36PM 40.4242 -86.7867 65° Northeast 439 505 35,000 120 Climbing Chicago Center
01:37PM 40.4764 -86.6386 65° Northeast 450 518 35,000  Level Chicago Center
01:38PM 40.5489 -86.4994 56° Northeast 463 533 35,000  Level Chicago Center
01:39PM 40.6233 -86.3661 54° Northeast 456 525 35,000 -180 Level Chicago Center
01:40PM 40.7094 -86.2008 55° Northeast 457 526 34,700 -540 Descending Chicago Center
01:41PM 40.7808 -86.0625 56° Northeast 459 528 33,900 -1,680 Descending Chicago Center
01:42PM 40.8519 -85.9261 55° Northeast 455 524 31,300 -3,420 Descending Chicago Center
01:43PM 40.9250 -85.7844 56° Northeast 465 535 26,900 -3,420 Descending Chicago Center
01:44PM 40.9992 -85.6417 55° Northeast 472 543 24,300 -2,520 Descending Chicago Center
01:45PM 41.0806 -85.4856 55° Northeast 435 501 21,700 -1,620 Descending Chicago Center
01:46PM 41.1464 -85.3578 56° Northeast 426 490 21,000 -360 Descending Chicago Center
01:47PM 41.2153 -85.2244 55° Northeast 435 501 21,000  Level Chicago Center
01:48PM 41.2917 -85.0928 52° Northeast 455 524 21,000  Level Chicago Center
01:49PM 41.3997 -85.0314 23° Northeast 428 493 21,000  Level Chicago Center
01:51PM 41.5336 -84.9772 17° North 424 488 21,000 -300 Level Chicago Center
01:52PM 41.6414 -84.9331 17° North 412 474 20,400 -1,020 Descending Chicago Center
01:53PM 41.7358 -84.8717 26° Northeast 393 452 18,900 -2,400 Descending Chicago Center
01:54PM 41.7906 -84.7225 64° Northeast 451 519 15,500 -2,580 Descending Chicago Center
01:55PM 41.8497 -84.5367 67° East 447 514 13,600 -1,680 Descending Chicago Center
01:56PM 41.8953 -84.3881 68° East 436 502 12,100 -1,380 Descending Chicago Center
01:56PM 41.9089 -84.3417 68° East 413 475 11,800 -1,200 Descending Cleveland Center
01:57PM 41.9392 -84.2403 68° East 392 451 10,800 -1,140 Descending Cleveland Center
01:58PM 41.9692 -84.1442 67° East 338 389 9,800 -540 Descending Cleveland Center
01:58PM 41.9953 -84.1122 42° Northeast 293 337 10,100 -120 Climbing Cleveland Center
01:59PM 42.0381 -84.0781 31° Northeast 276 318 9,700 -1,020 Descending Cleveland Center
01:59PM 42.0694 -84.0714 North 300 345 9,100 -1,620 Descending Cleveland Center
02:00PM 42.1186 -84.0378 27° Northeast 288 331 8,100 -1,560 Descending Cleveland Center
02:00PM 42.1394 -84.0306 14° North 300 345 7,700 -1,500 Descending Cleveland Center
02:01PM 42.1947 -83.9969 24° Northeast 288 331 6,600 -1,380 Descending Cleveland Center
02:01PM 42.2158 -83.9897 14° North 276 318 6,300 -1,740 Descending Cleveland Center
02:02PM 42.2667 -83.9617 22° Northeast 278 320 4,900 -1,980 Descending Cleveland Center
02:02PM 42.2878 -83.9514 20° North 271 312 4,300 -900 Descending Cleveland Center
02:03PM 42.3347 -83.9203 26° Northeast 273 314 4,000 -240 Descending Cleveland Center
02:03PM 42.3600 -83.9075 20° North 266 306 4,100 -120 Climbing Cleveland Center
02:04PM 42.4325 -83.8522 29° Northeast 281 323 3,900 -480 Descending Cleveland Center
02:05PM 42.4967 -83.7908 35° Northeast 266 306 3,200 -420 Descending Cleveland Center
02:06PM 42.5503 -83.7372 36° Northeast 260 299 3,100  Descending Cleveland Center
02:07PM 42.6169 -83.6700 37° Northeast 276 318 3,200  Climbing Cleveland Center
02:08PM 42.6319 -83.5719 78° East 270 311 3,100 -300 Descending Cleveland Center
02:09PM 42.6264 -83.4586 94° East 237 273 2,600 -480 Descending Cleveland Center
02:10PM 42.6283 -83.3856 88° East 190 219 2,100 -540 Descending Cleveland Center
02:11PM 42.6639 -83.3786 North 151 174 1,600 -600 Descending Cleveland Center